sensor_id;sensor_type;location;lat;lon;timestamp;temperature;humidity
4809;DHT22;2418;49.930;8.606;2022-10-31T00:02:07;10.20;99.20
4809;DHT22;2418;49.930;8.606;2022-10-31T00:04:33;10.10;99.20
4809;DHT22;2418;49.930;8.606;2022-10-31T00:06:58;10.10;99.20
4809;DHT22;2418;49.930;8.606;2022-10-31T00:09:24;10.00;99.20
4809;DHT22;2418;49.930;8.606;2022-10-31T00:11:49;9.90;99.20
4809;DHT22;2418;49.930;8.606;2022-10-31T00:14:15;9.90;99.20
4809;DHT22;2418;49.930;8.606;2022-10-31T00:16:41;9.90;99.20
4809;DHT22;2418;49.930;8.606;2022-10-31T00:19:07;9.90;99.20
4809;DHT22;2418;49.930;8.606;2022-10-31T00:21:34;9.80;99.20
4809;DHT22;2418;49.930;8.606;2022-10-31T00:24:00;9.80;99.20
4809;DHT22;2418;49.930;8.606;2022-10-31T00:26:32;9.80;99.20
4809;DHT22;2418;49.930;8.606;2022-10-31T00:28:59;9.70;99.20
4809;DHT22;2418;49.930;8.606;2022-10-31T00:31:24;9.80;99.20
4809;DHT22;2418;49.930;8.606;2022-10-31T00:33:50;9.80;99.20
4809;DHT22;2418;49.930;8.606;2022-10-31T00:36:19;9.80;99.20
4809;DHT22;2418;49.930;8.606;2022-10-31T00:38:46;9.90;99.20
4809;DHT22;2418;49.930;8.606;2022-10-31T00:41:14;9.90;99.20
4809;DHT22;2418;49.930;8.606;2022-10-31T00:43:41;9.90;99.20
4809;DHT22;2418;49.930;8.606;2022-10-31T00:46:07;9.80;99.20
4809;DHT22;2418;49.930;8.606;2022-10-31T00:48:32;9.80;99.20
4809;DHT22;2418;49.930;8.606;2022-10-31T00:50:58;9.80;99.20
4809;DHT22;2418;49.930;8.606;2022-10-31T00:53:23;9.90;99.20
4809;DHT22;2418;49.930;8.606;2022-10-31T00:55:49;9.90;99.20
4809;DHT22;2418;49.930;8.606;2022-10-31T00:58:14;9.80;99.20
4809;DHT22;2418;49.930;8.606;2022-10-31T01:00:40;9.80;99.20
4809;DHT22;2418;49.930;8.606;2022-10-31T01:03:06;9.80;99.20
4809;DHT22;2418;49.930;8.606;2022-10-31T01:05:31;9.70;99.20
4809;DHT22;2418;49.930;8.606;2022-10-31T01:07:58;9.70;99.20
4809;DHT22;2418;49.930;8.606;2022-10-31T01:10:23;9.60;99.20
4809;DHT22;2418;49.930;8.606;2022-10-31T01:12:49;9.60;99.20
4809;DHT22;2418;49.930;8.606;2022-10-31T01:15:22;9.60;99.20
4809;DHT22;2418;49.930;8.606;2022-10-31T01:17:48;9.60;99.20
4809;DHT22;2418;49.930;8.606;2022-10-31T01:20:14;9.60;99.20
4809;DHT22;2418;49.930;8.606;2022-10-31T01:22:40;9.60;99.20
4809;DHT22;2418;49.930;8.606;2022-10-31T01:25:06;9.60;99.20
4809;DHT22;2418;49.930;8.606;2022-10-31T01:27:32;9.60;99.20
4809;DHT22;2418;49.930;8.606;2022-10-31T01:29:58;9.60;99.20
4809;DHT22;2418;49.930;8.606;2022-10-31T01:32:24;9.70;99.20
4809;DHT22;2418;49.930;8.606;2022-10-31T01:34:50;9.70;99.20
4809;DHT22;2418;49.930;8.606;2022-10-31T01:37:15;9.70;99.20
4809;DHT22;2418;49.930;8.606;2022-10-31T01:39:41;9.70;99.20
4809;DHT22;2418;49.930;8.606;2022-10-31T01:42:07;9.60;99.20
4809;DHT22;2418;49.930;8.606;2022-10-31T01:47:29;9.60;99.20
4809;DHT22;2418;49.930;8.606;2022-10-31T01:49:57;9.60;99.20
4809;DHT22;2418;49.930;8.606;2022-10-31T01:52:28;9.50;99.20
4809;DHT22;2418;49.930;8.606;2022-10-31T01:55:07;9.50;99.20
4809;DHT22;2418;49.930;8.606;2022-10-31T01:57:35;9.50;99.20
4809;DHT22;2418;49.930;8.606;2022-10-31T02:00:08;9.60;99.20
4809;DHT22;2418;49.930;8.606;2022-10-31T02:02:34;9.70;99.20
4809;DHT22;2418;49.930;8.606;2022-10-31T02:05:02;9.70;99.20
4809;DHT22;2418;49.930;8.606;2022-10-31T02:07:34;9.70;99.20
4809;DHT22;2418;49.930;8.606;2022-10-31T02:10:03;9.60;99.20
4809;DHT22;2418;49.930;8.606;2022-10-31T02:12:30;9.60;99.20
4809;DHT22;2418;49.930;8.606;2022-10-31T02:14:57;9.60;99.20
4809;DHT22;2418;49.930;8.606;2022-10-31T02:17:23;9.60;99.20
4809;DHT22;2418;49.930;8.606;2022-10-31T02:19:54;9.60;99.20
4809;DHT22;2418;49.930;8.606;2022-10-31T02:22:37;9.60;99.20
4809;DHT22;2418;49.930;8.606;2022-10-31T02:30:21;9.70;99.20
4809;DHT22;2418;49.930;8.606;2022-10-31T02:35:31;9.80;99.20
4809;DHT22;2418;49.930;8.606;2022-10-31T02:38:23;9.80;99.20
4809;DHT22;2418;49.930;8.606;2022-10-31T02:41:04;9.80;99.20
4809;DHT22;2418;49.930;8.606;2022-10-31T02:44:08;9.70;99.20
4809;DHT22;2418;49.930;8.606;2022-10-31T02:46:55;9.70;99.20
4809;DHT22;2418;49.930;8.606;2022-10-31T02:49:59;9.70;99.20
4809;DHT22;2418;49.930;8.606;2022-10-31T02:52:28;9.60;99.20
4809;DHT22;2418;49.930;8.606;2022-10-31T02:54:54;9.60;99.20
4809;DHT22;2418;49.930;8.606;2022-10-31T02:57:29;9.60;99.20
4809;DHT22;2418;49.930;8.606;2022-10-31T03:00:00;9.60;99.20
4809;DHT22;2418;49.930;8.606;2022-10-31T03:02:39;9.60;99.20
4809;DHT22;2418;49.930;8.606;2022-10-31T03:05:23;9.60;99.20
4809;DHT22;2418;49.930;8.606;2022-10-31T03:13:39;9.60;99.20
4809;DHT22;2418;49.930;8.606;2022-10-31T03:18:39;9.50;99.20
4809;DHT22;2418;49.930;8.606;2022-10-31T03:21:13;9.50;99.20
4809;DHT22;2418;49.930;8.606;2022-10-31T03:23:40;9.50;99.20
4809;DHT22;2418;49.930;8.606;2022-10-31T03:26:09;9.50;99.20
4809;DHT22;2418;49.930;8.606;2022-10-31T03:28:48;9.40;99.20
4809;DHT22;2418;49.930;8.606;2022-10-31T03:31:17;9.40;99.20
4809;DHT22;2418;49.930;8.606;2022-10-31T03:33:44;9.40;99.20
4809;DHT22;2418;49.930;8.606;2022-10-31T03:36:14;9.50;99.20
4809;DHT22;2418;49.930;8.606;2022-10-31T03:38:42;9.50;99.20
4809;DHT22;2418;49.930;8.606;2022-10-31T03:41:12;9.50;99.20
4809;DHT22;2418;49.930;8.606;2022-10-31T03:43:46;9.50;99.20
4809;DHT22;2418;49.930;8.606;2022-10-31T03:46:13;9.50;99.20
4809;DHT22;2418;49.930;8.606;2022-10-31T03:48:39;9.40;99.20
4809;DHT22;2418;49.930;8.606;2022-10-31T03:53:49;9.40;99.20
4809;DHT22;2418;49.930;8.606;2022-10-31T03:56:36;9.40;99.20
4809;DHT22;2418;49.930;8.606;2022-10-31T03:59:12;9.40;99.20
4809;DHT22;2418;49.930;8.606;2022-10-31T04:01:41;9.40;99.20
4809;DHT22;2418;49.930;8.606;2022-10-31T04:04:09;9.40;99.20
4809;DHT22;2418;49.930;8.606;2022-10-31T04:06:36;9.40;99.20
4809;DHT22;2418;49.930;8.606;2022-10-31T04:09:05;9.30;99.20
4809;DHT22;2418;49.930;8.606;2022-10-31T04:11:35;9.30;99.20
4809;DHT22;2418;49.930;8.606;2022-10-31T04:14:03;9.30;99.20
4809;DHT22;2418;49.930;8.606;2022-10-31T04:16:30;9.30;99.20
4809;DHT22;2418;49.930;8.606;2022-10-31T04:18:56;9.30;99.20
4809;DHT22;2418;49.930;8.606;2022-10-31T04:21:27;9.40;99.20
4809;DHT22;2418;49.930;8.606;2022-10-31T04:23:54;9.40;99.20
4809;DHT22;2418;49.930;8.606;2022-10-31T04:26:19;9.40;99.20
4809;DHT22;2418;49.930;8.606;2022-10-31T04:28:45;9.50;99.20
4809;DHT22;2418;49.930;8.606;2022-10-31T04:31:11;9.50;99.20
4809;DHT22;2418;49.930;8.606;2022-10-31T04:33:37;9.60;99.20
4809;DHT22;2418;49.930;8.606;2022-10-31T04:36:03;9.60;99.20
4809;DHT22;2418;49.930;8.606;2022-10-31T04:38:30;9.60;99.20
4809;DHT22;2418;49.930;8.606;2022-10-31T04:40:56;9.60;99.20
4809;DHT22;2418;49.930;8.606;2022-10-31T04:43:21;9.60;99.20
4809;DHT22;2418;49.930;8.606;2022-10-31T04:45:47;9.70;99.20
4809;DHT22;2418;49.930;8.606;2022-10-31T04:48:13;9.70;99.20
4809;DHT22;2418;49.930;8.606;2022-10-31T04:50:39;9.60;99.20
4809;DHT22;2418;49.930;8.606;2022-10-31T04:53:07;9.60;99.20
4809;DHT22;2418;49.930;8.606;2022-10-31T04:55:32;9.50;99.20
4809;DHT22;2418;49.930;8.606;2022-10-31T04:57:58;9.30;99.20
4809;DHT22;2418;49.930;8.606;2022-10-31T05:00:24;9.30;99.20
4809;DHT22;2418;49.930;8.606;2022-10-31T05:02:55;9.20;99.20
4809;DHT22;2418;49.930;8.606;2022-10-31T05:05:23;9.20;99.20
4809;DHT22;2418;49.930;8.606;2022-10-31T05:07:50;9.20;99.20
4809;DHT22;2418;49.930;8.606;2022-10-31T05:10:21;9.10;99.20
4809;DHT22;2418;49.930;8.606;2022-10-31T05:12:51;9.00;99.20
4809;DHT22;2418;49.930;8.606;2022-10-31T05:15:18;9.00;99.20
4809;DHT22;2418;49.930;8.606;2022-10-31T05:17:44;9.00;99.20
4809;DHT22;2418;49.930;8.606;2022-10-31T05:20:11;9.00;99.20
4809;DHT22;2418;49.930;8.606;2022-10-31T05:22:42;9.00;99.20
4809;DHT22;2418;49.930;8.606;2022-10-31T05:25:08;9.00;99.20
4809;DHT22;2418;49.930;8.606;2022-10-31T05:27:34;9.00;99.20
4809;DHT22;2418;49.930;8.606;2022-10-31T05:29:59;9.00;99.20
4809;DHT22;2418;49.930;8.606;2022-10-31T05:32:25;9.10;99.20
4809;DHT22;2418;49.930;8.606;2022-10-31T05:34:50;9.10;99.20
4809;DHT22;2418;49.930;8.606;2022-10-31T05:37:16;9.20;99.20
4809;DHT22;2418;49.930;8.606;2022-10-31T05:39:42;9.20;99.20
4809;DHT22;2418;49.930;8.606;2022-10-31T05:42:07;9.20;99.20
4809;DHT22;2418;49.930;8.606;2022-10-31T05:44:33;9.20;99.20
4809;DHT22;2418;49.930;8.606;2022-10-31T05:46:58;9.20;99.20
4809;DHT22;2418;49.930;8.606;2022-10-31T05:49:24;9.20;99.20
4809;DHT22;2418;49.930;8.606;2022-10-31T05:51:49;9.30;99.20
4809;DHT22;2418;49.930;8.606;2022-10-31T05:54:15;9.30;99.20
4809;DHT22;2418;49.930;8.606;2022-10-31T05:56:41;9.40;99.20
4809;DHT22;2418;49.930;8.606;2022-10-31T05:59:06;9.40;99.20
4809;DHT22;2418;49.930;8.606;2022-10-31T06:01:33;9.40;99.20
4809;DHT22;2418;49.930;8.606;2022-10-31T06:04:00;9.40;99.20
4809;DHT22;2418;49.930;8.606;2022-10-31T06:06:26;9.40;99.20
4809;DHT22;2418;49.930;8.606;2022-10-31T06:08:52;9.40;99.20
4809;DHT22;2418;49.930;8.606;2022-10-31T06:11:19;9.40;99.20
4809;DHT22;2418;49.930;8.606;2022-10-31T06:13:46;9.40;99.20
4809;DHT22;2418;49.930;8.606;2022-10-31T06:16:11;9.40;99.20
4809;DHT22;2418;49.930;8.606;2022-10-31T06:18:37;9.40;99.20
4809;DHT22;2418;49.930;8.606;2022-10-31T06:21:03;9.40;99.20
4809;DHT22;2418;49.930;8.606;2022-10-31T06:23:28;9.40;99.20
4809;DHT22;2418;49.930;8.606;2022-10-31T06:25:55;9.40;99.20
4809;DHT22;2418;49.930;8.606;2022-10-31T06:28:21;9.50;99.20
4809;DHT22;2418;49.930;8.606;2022-10-31T06:30:46;9.40;99.20
4809;DHT22;2418;49.930;8.606;2022-10-31T06:33:12;9.50;99.20
4809;DHT22;2418;49.930;8.606;2022-10-31T06:35:45;9.50;99.20
4809;DHT22;2418;49.930;8.606;2022-10-31T06:38:12;9.60;99.20
4809;DHT22;2418;49.930;8.606;2022-10-31T06:40:38;9.60;99.20
4809;DHT22;2418;49.930;8.606;2022-10-31T06:43:05;9.70;99.20
4809;DHT22;2418;49.930;8.606;2022-10-31T06:45:32;9.80;99.20
4809;DHT22;2418;49.930;8.606;2022-10-31T06:47:57;9.90;99.20
4809;DHT22;2418;49.930;8.606;2022-10-31T06:50:24;9.90;99.20
4809;DHT22;2418;49.930;8.606;2022-10-31T06:52:54;10.00;99.20
4809;DHT22;2418;49.930;8.606;2022-10-31T06:55:22;10.10;99.20
4809;DHT22;2418;49.930;8.606;2022-10-31T06:58:06;10.20;99.20
4809;DHT22;2418;49.930;8.606;2022-10-31T07:00:33;10.20;99.20
4809;DHT22;2418;49.930;8.606;2022-10-31T07:03:05;10.30;99.20
4809;DHT22;2418;49.930;8.606;2022-10-31T07:05:31;10.30;99.20
4809;DHT22;2418;49.930;8.606;2022-10-31T07:07:59;10.30;99.20
4809;DHT22;2418;49.930;8.606;2022-10-31T07:10:29;10.30;99.20
4809;DHT22;2418;49.930;8.606;2022-10-31T07:12:57;10.30;99.20
4809;DHT22;2418;49.930;8.606;2022-10-31T07:15:25;10.30;99.20
4809;DHT22;2418;49.930;8.606;2022-10-31T07:17:51;10.40;99.20
4809;DHT22;2418;49.930;8.606;2022-10-31T07:20:17;10.50;99.20
4809;DHT22;2418;49.930;8.606;2022-10-31T07:22:43;10.50;99.20
4809;DHT22;2418;49.930;8.606;2022-10-31T07:25:11;10.60;99.20
4809;DHT22;2418;49.930;8.606;2022-10-31T07:27:42;10.60;99.20
4809;DHT22;2418;49.930;8.606;2022-10-31T07:30:09;10.70;99.20
4809;DHT22;2418;49.930;8.606;2022-10-31T07:32:49;10.80;99.20
4809;DHT22;2418;49.930;8.606;2022-10-31T07:35:21;10.80;99.20
4809;DHT22;2418;49.930;8.606;2022-10-31T07:37:47;10.90;99.20
4809;DHT22;2418;49.930;8.606;2022-10-31T07:40:13;10.90;99.20
4809;DHT22;2418;49.930;8.606;2022-10-31T07:42:41;10.90;99.20
4809;DHT22;2418;49.930;8.606;2022-10-31T07:45:10;11.00;99.20
4809;DHT22;2418;49.930;8.606;2022-10-31T07:47:46;11.00;99.20
4809;DHT22;2418;49.930;8.606;2022-10-31T07:50:17;11.10;99.20
4809;DHT22;2418;49.930;8.606;2022-10-31T07:52:43;11.20;99.20
4809;DHT22;2418;49.930;8.606;2022-10-31T07:55:09;11.30;99.20
4809;DHT22;2418;49.930;8.606;2022-10-31T07:57:35;11.30;99.20
4809;DHT22;2418;49.930;8.606;2022-10-31T08:00:03;11.30;99.20
4809;DHT22;2418;49.930;8.606;2022-10-31T08:02:29;11.40;99.20
4809;DHT22;2418;49.930;8.606;2022-10-31T08:04:55;11.50;99.20
4809;DHT22;2418;49.930;8.606;2022-10-31T08:07:20;11.50;99.20
4809;DHT22;2418;49.930;8.606;2022-10-31T08:09:47;11.60;99.20
4809;DHT22;2418;49.930;8.606;2022-10-31T08:12:12;11.70;99.20
4809;DHT22;2418;49.930;8.606;2022-10-31T08:14:38;11.70;99.20
4809;DHT22;2418;49.930;8.606;2022-10-31T08:17:04;11.80;99.20
4809;DHT22;2418;49.930;8.606;2022-10-31T08:19:29;11.80;99.20
4809;DHT22;2418;49.930;8.606;2022-10-31T08:21:55;11.90;99.20
4809;DHT22;2418;49.930;8.606;2022-10-31T08:24:21;11.90;99.20
4809;DHT22;2418;49.930;8.606;2022-10-31T08:26:48;12.00;99.20
4809;DHT22;2418;49.930;8.606;2022-10-31T08:29:14;12.00;99.20
4809;DHT22;2418;49.930;8.606;2022-10-31T08:31:40;12.00;99.20
4809;DHT22;2418;49.930;8.606;2022-10-31T08:34:06;12.10;99.20
4809;DHT22;2418;49.930;8.606;2022-10-31T08:36:32;12.20;99.20
4809;DHT22;2418;49.930;8.606;2022-10-31T08:39:00;12.30;99.20
4809;DHT22;2418;49.930;8.606;2022-10-31T08:41:25;12.30;99.20
4809;DHT22;2418;49.930;8.606;2022-10-31T08:43:51;12.30;99.20
4809;DHT22;2418;49.930;8.606;2022-10-31T08:46:17;12.40;99.20
4809;DHT22;2418;49.930;8.606;2022-10-31T08:48:43;12.50;99.20
4809;DHT22;2418;49.930;8.606;2022-10-31T08:51:09;12.60;99.20
4809;DHT22;2418;49.930;8.606;2022-10-31T08:53:35;12.70;99.20
4809;DHT22;2418;49.930;8.606;2022-10-31T08:56:01;12.80;99.20
4809;DHT22;2418;49.930;8.606;2022-10-31T08:58:27;12.80;99.20
4809;DHT22;2418;49.930;8.606;2022-10-31T09:00:53;12.80;99.20
4809;DHT22;2418;49.930;8.606;2022-10-31T09:03:24;12.90;99.20
4809;DHT22;2418;49.930;8.606;2022-10-31T09:05:55;13.00;99.20
4809;DHT22;2418;49.930;8.606;2022-10-31T09:08:21;13.10;99.20
4809;DHT22;2418;49.930;8.606;2022-10-31T09:10:48;13.20;99.20
4809;DHT22;2418;49.930;8.606;2022-10-31T09:13:16;13.30;99.20
4809;DHT22;2418;49.930;8.606;2022-10-31T09:15:45;13.40;99.20
4809;DHT22;2418;49.930;8.606;2022-10-31T09:18:16;13.50;99.20
4809;DHT22;2418;49.930;8.606;2022-10-31T09:20:43;13.60;99.20
4809;DHT22;2418;49.930;8.606;2022-10-31T09:23:19;13.80;99.20
4809;DHT22;2418;49.930;8.606;2022-10-31T09:25:47;13.90;99.20
4809;DHT22;2418;49.930;8.606;2022-10-31T09:28:15;14.00;99.20
4809;DHT22;2418;49.930;8.606;2022-10-31T09:30:41;14.00;99.20
4809;DHT22;2418;49.930;8.606;2022-10-31T09:33:12;14.10;99.20
4809;DHT22;2418;49.930;8.606;2022-10-31T09:35:38;14.10;99.20
4809;DHT22;2418;49.930;8.606;2022-10-31T09:38:13;14.30;99.20
4809;DHT22;2418;49.930;8.606;2022-10-31T09:40:55;14.40;99.20
4809;DHT22;2418;49.930;8.606;2022-10-31T09:51:51;15.00;99.20
4809;DHT22;2418;49.930;8.606;2022-10-31T09:54:26;15.30;99.20
4809;DHT22;2418;49.930;8.606;2022-10-31T09:56:52;15.40;99.20
4809;DHT22;2418;49.930;8.606;2022-10-31T09:59:36;15.60;99.20
4809;DHT22;2418;49.930;8.606;2022-10-31T10:02:17;15.70;99.20
4809;DHT22;2418;49.930;8.606;2022-10-31T10:05:00;15.80;99.20
4809;DHT22;2418;49.930;8.606;2022-10-31T10:10:01;15.90;99.20
4809;DHT22;2418;49.930;8.606;2022-10-31T10:12:47;15.90;99.20
4809;DHT22;2418;49.930;8.606;2022-10-31T10:15:34;16.00;99.20
4809;DHT22;2418;49.930;8.606;2022-10-31T10:18:22;16.00;99.20
4809;DHT22;2418;49.930;8.606;2022-10-31T10:23:49;16.00;99.20
4809;DHT22;2418;49.930;8.606;2022-10-31T10:26:18;16.20;99.20
4809;DHT22;2418;49.930;8.606;2022-10-31T10:28:49;16.20;99.20
4809;DHT22;2418;49.930;8.606;2022-10-31T10:31:18;16.30;99.20
4809;DHT22;2418;49.930;8.606;2022-10-31T10:34:19;16.40;99.20
4809;DHT22;2418;49.930;8.606;2022-10-31T10:36:55;16.50;99.20
4809;DHT22;2418;49.930;8.606;2022-10-31T10:39:45;16.60;99.20
4809;DHT22;2418;49.930;8.606;2022-10-31T10:42:14;16.60;99.20
4809;DHT22;2418;49.930;8.606;2022-10-31T10:44:59;16.70;99.20
4809;DHT22;2418;49.930;8.606;2022-10-31T10:47:48;16.80;99.20
4809;DHT22;2418;49.930;8.606;2022-10-31T10:50:23;17.10;99.20
4809;DHT22;2418;49.930;8.606;2022-10-31T10:53:02;17.20;99.20
4809;DHT22;2418;49.930;8.606;2022-10-31T10:58:07;17.20;99.20
4809;DHT22;2418;49.930;8.606;2022-10-31T11:00:44;17.40;99.20
4809;DHT22;2418;49.930;8.606;2022-10-31T11:03:13;17.70;99.20
4809;DHT22;2418;49.930;8.606;2022-10-31T11:11:24;18.20;99.20
4809;DHT22;2418;49.930;8.606;2022-10-31T11:14:11;18.30;99.20
4809;DHT22;2418;49.930;8.606;2022-10-31T11:16:42;18.40;99.20
4809;DHT22;2418;49.930;8.606;2022-10-31T11:19:17;18.50;99.20
4809;DHT22;2418;49.930;8.606;2022-10-31T11:21:45;18.60;99.20
4809;DHT22;2418;49.930;8.606;2022-10-31T11:26:39;18.90;99.20
4809;DHT22;2418;49.930;8.606;2022-10-31T11:29:11;19.00;99.20
4809;DHT22;2418;49.930;8.606;2022-10-31T11:31:40;19.00;99.20
4809;DHT22;2418;49.930;8.606;2022-10-31T11:34:14;18.90;99.20
4809;DHT22;2418;49.930;8.606;2022-10-31T11:36:43;18.90;99.20
4809;DHT22;2418;49.930;8.606;2022-10-31T11:39:20;19.00;99.20
4809;DHT22;2418;49.930;8.606;2022-10-31T11:41:48;19.10;99.20
4809;DHT22;2418;49.930;8.606;2022-10-31T11:44:28;19.20;99.20
4809;DHT22;2418;49.930;8.606;2022-10-31T11:46:59;19.30;99.20
4809;DHT22;2418;49.930;8.606;2022-10-31T11:52:01;19.20;99.20
4809;DHT22;2418;49.930;8.606;2022-10-31T11:57:28;19.30;99.20
4809;DHT22;2418;49.930;8.606;2022-10-31T12:00:03;19.40;99.20
4809;DHT22;2418;49.930;8.606;2022-10-31T12:02:30;19.50;99.20
4809;DHT22;2418;49.930;8.606;2022-10-31T12:05:17;19.60;99.20
4809;DHT22;2418;49.930;8.606;2022-10-31T12:07:47;19.80;99.20
4809;DHT22;2418;49.930;8.606;2022-10-31T12:10:14;19.90;99.20
4809;DHT22;2418;49.930;8.606;2022-10-31T12:15:37;20.00;99.20
4809;DHT22;2418;49.930;8.606;2022-10-31T12:43:52;20.30;99.20
4809;DHT22;2418;49.930;8.606;2022-10-31T12:45:57;20.20;99.20
4809;DHT22;2418;49.930;8.606;2022-10-31T12:51:57;20.10;99.20
4809;DHT22;2418;49.930;8.606;2022-10-31T12:59:48;19.90;99.20
4809;DHT22;2418;49.930;8.606;2022-10-31T13:02:41;19.80;99.20
4809;DHT22;2418;49.930;8.606;2022-10-31T13:05:42;19.80;99.20
4809;DHT22;2418;49.930;8.606;2022-10-31T13:08:09;19.80;99.20
4809;DHT22;2418;49.930;8.606;2022-10-31T13:13:35;19.80;99.20
4809;DHT22;2418;49.930;8.606;2022-10-31T13:16:13;19.90;99.20
4809;DHT22;2418;49.930;8.606;2022-10-31T13:18:48;19.90;99.20
4809;DHT22;2418;49.930;8.606;2022-10-31T13:21:24;19.90;99.20
4809;DHT22;2418;49.930;8.606;2022-10-31T13:23:51;19.80;99.20
4809;DHT22;2418;49.930;8.606;2022-10-31T13:26:38;19.80;99.20
4809;DHT22;2418;49.930;8.606;2022-10-31T13:29:08;19.90;99.20
4809;DHT22;2418;49.930;8.606;2022-10-31T13:31:34;20.00;99.20
4809;DHT22;2418;49.930;8.606;2022-10-31T13:34:04;20.00;99.20
4809;DHT22;2418;49.930;8.606;2022-10-31T13:36:42;20.10;99.20
4809;DHT22;2418;49.930;8.606;2022-10-31T13:41:59;20.20;99.20
4809;DHT22;2418;49.930;8.606;2022-10-31T13:44:28;20.20;99.20
4809;DHT22;2418;49.930;8.606;2022-10-31T13:46:56;20.20;99.20
4809;DHT22;2418;49.930;8.606;2022-10-31T13:54:46;19.70;99.20
4809;DHT22;2418;49.930;8.606;2022-10-31T13:57:22;19.60;99.20
4809;DHT22;2418;49.930;8.606;2022-10-31T13:59:52;19.50;99.20
4809;DHT22;2418;49.930;8.606;2022-10-31T14:02:34;19.40;99.20
4809;DHT22;2418;49.930;8.606;2022-10-31T14:07:31;19.20;99.20
4809;DHT22;2418;49.930;8.606;2022-10-31T14:10:04;19.20;99.20
4809;DHT22;2418;49.930;8.606;2022-10-31T14:12:41;19.10;99.20
4809;DHT22;2418;49.930;8.606;2022-10-31T14:22:45;18.90;99.20
4809;DHT22;2418;49.930;8.606;2022-10-31T14:25:35;18.80;99.20
4809;DHT22;2418;49.930;8.606;2022-10-31T14:28:05;18.90;99.20
4809;DHT22;2418;49.930;8.606;2022-10-31T14:30:55;19.00;99.20
4809;DHT22;2418;49.930;8.606;2022-10-31T14:33:22;19.30;99.20
4809;DHT22;2418;49.930;8.606;2022-10-31T14:36:07;19.50;99.20
4809;DHT22;2418;49.930;8.606;2022-10-31T14:42:13;20.00;99.20
4809;DHT22;2418;49.930;8.606;2022-10-31T14:45:00;20.20;99.20
4809;DHT22;2418;49.930;8.606;2022-10-31T14:47:35;20.30;99.20
4809;DHT22;2418;49.930;8.606;2022-10-31T14:50:37;20.40;99.20
4809;DHT22;2418;49.930;8.606;2022-10-31T14:53:03;20.40;99.20
4809;DHT22;2418;49.930;8.606;2022-10-31T14:55:29;20.30;99.20
4809;DHT22;2418;49.930;8.606;2022-10-31T14:58:05;20.10;99.20
4809;DHT22;2418;49.930;8.606;2022-10-31T15:00:33;19.90;99.20
4809;DHT22;2418;49.930;8.606;2022-10-31T15:03:07;19.80;99.20
4809;DHT22;2418;49.930;8.606;2022-10-31T15:05:49;19.60;99.20
4809;DHT22;2418;49.930;8.606;2022-10-31T15:08:47;19.40;99.20
4809;DHT22;2418;49.930;8.606;2022-10-31T15:13:49;18.90;99.20
4809;DHT22;2418;49.930;8.606;2022-10-31T15:16:18;18.70;99.20
4809;DHT22;2418;49.930;8.606;2022-10-31T15:18:58;18.50;99.20
4809;DHT22;2418;49.930;8.606;2022-10-31T15:21:27;18.30;99.20
4809;DHT22;2418;49.930;8.606;2022-10-31T15:23:56;18.20;99.20
4809;DHT22;2418;49.930;8.606;2022-10-31T15:26:24;18.00;99.20
4809;DHT22;2418;49.930;8.606;2022-10-31T15:28:59;17.90;99.20
4809;DHT22;2418;49.930;8.606;2022-10-31T15:31:25;17.80;99.20
4809;DHT22;2418;49.930;8.606;2022-10-31T15:33:52;17.70;99.20
4809;DHT22;2418;49.930;8.606;2022-10-31T15:36:22;17.60;99.20
4809;DHT22;2418;49.930;8.606;2022-10-31T15:38:49;17.50;99.20
4809;DHT22;2418;49.930;8.606;2022-10-31T15:41:35;17.50;99.20
4809;DHT22;2418;49.930;8.606;2022-10-31T15:44:28;17.40;99.20
4809;DHT22;2418;49.930;8.606;2022-10-31T15:47:03;17.30;99.20
4809;DHT22;2418;49.930;8.606;2022-10-31T15:49:36;17.20;99.20
4809;DHT22;2418;49.930;8.606;2022-10-31T15:57:43;17.00;99.20
4809;DHT22;2418;49.930;8.606;2022-10-31T16:00:31;16.90;99.20
4809;DHT22;2418;49.930;8.606;2022-10-31T16:05:43;16.80;99.20
4809;DHT22;2418;49.930;8.606;2022-10-31T16:10:56;16.70;99.20
4809;DHT22;2418;49.930;8.606;2022-10-31T16:13:34;16.70;99.20
4809;DHT22;2418;49.930;8.606;2022-10-31T16:16:11;16.60;99.20
4809;DHT22;2418;49.930;8.606;2022-10-31T16:18:43;16.50;99.20
4809;DHT22;2418;49.930;8.606;2022-10-31T16:21:09;16.50;99.20
4809;DHT22;2418;49.930;8.606;2022-10-31T16:23:36;16.40;99.20
4809;DHT22;2418;49.930;8.606;2022-10-31T16:26:07;16.40;99.20
4809;DHT22;2418;49.930;8.606;2022-10-31T16:28:35;16.40;99.20
4809;DHT22;2418;49.930;8.606;2022-10-31T16:31:12;16.40;99.20
4809;DHT22;2418;49.930;8.606;2022-10-31T16:33:40;16.30;99.20
4809;DHT22;2418;49.930;8.606;2022-10-31T16:38:54;16.30;99.20
4809;DHT22;2418;49.930;8.606;2022-10-31T16:41:21;16.30;99.20
4809;DHT22;2418;49.930;8.606;2022-10-31T16:43:48;16.40;99.20
4809;DHT22;2418;49.930;8.606;2022-10-31T16:46:25;16.30;99.20
4809;DHT22;2418;49.930;8.606;2022-10-31T16:48:52;16.30;99.20
4809;DHT22;2418;49.930;8.606;2022-10-31T16:51:18;16.30;99.20
4809;DHT22;2418;49.930;8.606;2022-10-31T16:53:43;16.30;99.20
4809;DHT22;2418;49.930;8.606;2022-10-31T16:56:16;16.20;99.20
4809;DHT22;2418;49.930;8.606;2022-10-31T16:58:42;16.10;99.20
4809;DHT22;2418;49.930;8.606;2022-10-31T17:01:09;16.10;99.20
4809;DHT22;2418;49.930;8.606;2022-10-31T17:03:36;16.10;99.20
4809;DHT22;2418;49.930;8.606;2022-10-31T17:06:02;16.20;99.20
4809;DHT22;2418;49.930;8.606;2022-10-31T17:08:28;16.10;99.20
4809;DHT22;2418;49.930;8.606;2022-10-31T17:10:55;16.10;99.20
4809;DHT22;2418;49.930;8.606;2022-10-31T17:13:24;16.10;99.20
4809;DHT22;2418;49.930;8.606;2022-10-31T17:15:53;16.00;99.20
4809;DHT22;2418;49.930;8.606;2022-10-31T17:18:20;15.90;99.20
4809;DHT22;2418;49.930;8.606;2022-10-31T17:20:46;15.80;99.20
4809;DHT22;2418;49.930;8.606;2022-10-31T17:23:14;15.80;99.20
4809;DHT22;2418;49.930;8.606;2022-10-31T17:25:40;15.70;99.20
4809;DHT22;2418;49.930;8.606;2022-10-31T17:28:06;15.70;99.20
4809;DHT22;2418;49.930;8.606;2022-10-31T17:30:35;15.70;99.20
4809;DHT22;2418;49.930;8.606;2022-10-31T17:33:02;15.80;99.20
4809;DHT22;2418;49.930;8.606;2022-10-31T17:35:27;15.80;99.20
4809;DHT22;2418;49.930;8.606;2022-10-31T17:37:53;15.80;99.20
4809;DHT22;2418;49.930;8.606;2022-10-31T17:40:20;15.80;99.20
4809;DHT22;2418;49.930;8.606;2022-10-31T17:42:55;15.90;99.20
4809;DHT22;2418;49.930;8.606;2022-10-31T17:45:22;15.90;99.20
4809;DHT22;2418;49.930;8.606;2022-10-31T17:47:49;15.80;99.20
4809;DHT22;2418;49.930;8.606;2022-10-31T17:50:20;15.70;99.20
4809;DHT22;2418;49.930;8.606;2022-10-31T17:52:46;15.60;99.20
4809;DHT22;2418;49.930;8.606;2022-10-31T17:55:12;15.50;99.20
4809;DHT22;2418;49.930;8.606;2022-10-31T17:57:38;15.30;99.20
4809;DHT22;2418;49.930;8.606;2022-10-31T18:00:06;15.20;99.20
4809;DHT22;2418;49.930;8.606;2022-10-31T18:02:33;15.00;99.20
4809;DHT22;2418;49.930;8.606;2022-10-31T18:05:01;15.00;99.20
4809;DHT22;2418;49.930;8.606;2022-10-31T18:07:27;14.90;99.20
4809;DHT22;2418;49.930;8.606;2022-10-31T18:09:53;14.80;99.20
4809;DHT22;2418;49.930;8.606;2022-10-31T18:12:18;14.70;99.20
4809;DHT22;2418;49.930;8.606;2022-10-31T18:14:44;14.60;99.20
4809;DHT22;2418;49.930;8.606;2022-10-31T18:17:11;14.50;99.20
4809;DHT22;2418;49.930;8.606;2022-10-31T18:19:37;14.40;99.20
4809;DHT22;2418;49.930;8.606;2022-10-31T18:22:02;14.40;99.20
4809;DHT22;2418;49.930;8.606;2022-10-31T18:24:28;14.40;99.20
4809;DHT22;2418;49.930;8.606;2022-10-31T18:26:55;14.30;99.20
4809;DHT22;2418;49.930;8.606;2022-10-31T18:29:22;14.30;99.20
4809;DHT22;2418;49.930;8.606;2022-10-31T18:31:47;14.20;99.20
4809;DHT22;2418;49.930;8.606;2022-10-31T18:34:14;14.20;99.20
4809;DHT22;2418;49.930;8.606;2022-10-31T18:36:40;14.20;99.20